sensor_id;sensor_type;location;lat;lon;timestamp;P1;durP1;ratioP1;P2;durP2;ratioP2
65799;SDS011;52544;48.116;11.660;2023-12-20T00:02:23;3.35;;;2.00;;
65799;SDS011;52544;48.116;11.660;2023-12-20T00:04:48;3.35;;;1.88;;
65799;SDS011;52544;48.116;11.660;2023-12-20T00:07:14;3.92;;;2.00;;
65799;SDS011;52544;48.116;11.660;2023-12-20T00:09:39;3.75;;;2.25;;
65799;SDS011;52544;48.116;11.660;2023-12-20T00:12:05;4.32;;;2.28;;
65799;SDS011;52544;48.116;11.660;2023-12-20T00:14:30;3.63;;;2.08;;
65799;SDS011;52544;48.116;11.660;2023-12-20T00:16:56;4.50;;;2.20;;
65799;SDS011;52544;48.116;11.660;2023-12-20T00:19:21;3.92;;;2.25;;
65799;SDS011;52544;48.116;11.660;2023-12-20T00:21:46;3.65;;;1.90;;
65799;SDS011;52544;48.116;11.660;2023-12-20T00:24:12;3.60;;;2.30;;
65799;SDS011;52544;48.116;11.660;2023-12-20T00:26:37;4.22;;;2.30;;
65799;SDS011;52544;48.116;11.660;2023-12-20T00:29:03;3.05;;;1.77;;
65799;SDS011;52544;48.116;11.660;2023-12-20T00:31:28;5.10;;;2.00;;
65799;SDS011;52544;48.116;11.660;2023-12-20T00:33:53;3.15;;;1.88;;
65799;SDS011;52544;48.116;11.660;2023-12-20T00:36:19;4.68;;;2.15;;
65799;SDS011;52544;48.116;11.660;2023-12-20T00:38:45;3.50;;;2.33;;
65799;SDS011;52544;48.116;11.660;2023-12-20T00:41:10;3.03;;;1.80;;
65799;SDS011;52544;48.116;11.660;2023-12-20T00:43:35;3.08;;;1.83;;
65799;SDS011;52544;48.116;11.660;2023-12-20T00:46:01;2.55;;;1.80;;
65799;SDS011;52544;48.116;11.660;2023-12-20T00:48:26;3.58;;;1.98;;
65799;SDS011;52544;48.116;11.660;2023-12-20T00:50:52;2.70;;;1.73;;
65799;SDS011;52544;48.116;11.660;2023-12-20T00:53:18;1.85;;;1.40;;
65799;SDS011;52544;48.116;11.660;2023-12-20T00:55:43;1.98;;;1.40;;
65799;SDS011;52544;48.116;11.660;2023-12-20T00:58:10;2.15;;;1.30;;
65799;SDS011;52544;48.116;11.660;2023-12-20T01:00:35;1.73;;;1.33;;
65799;SDS011;52544;48.116;11.660;2023-12-20T01:03:00;2.67;;;1.60;;
65799;SDS011;52544;48.116;11.660;2023-12-20T01:05:26;2.55;;;1.20;;
65799;SDS011;52544;48.116;11.660;2023-12-20T01:07:51;1.90;;;1.40;;
65799;SDS011;52544;48.116;11.660;2023-12-20T01:10:17;1.83;;;1.33;;
65799;SDS011;52544;48.116;11.660;2023-12-20T01:12:43;2.72;;;1.50;;
65799;SDS011;52544;48.116;11.660;2023-12-20T01:15:09;3.05;;;1.48;;
65799;SDS011;52544;48.116;11.660;2023-12-20T01:17:34;4.70;;;1.77;;
65799;SDS011;52544;48.116;11.660;2023-12-20T01:20:00;3.13;;;1.50;;
65799;SDS011;52544;48.116;11.660;2023-12-20T01:22:25;2.63;;;1.60;;
65799;SDS011;52544;48.116;11.660;2023-12-20T01:24:51;1.98;;;1.38;;
65799;SDS011;52544;48.116;11.660;2023-12-20T01:27:16;2.63;;;1.35;;
65799;SDS011;52544;48.116;11.660;2023-12-20T01:29:41;2.53;;;1.50;;
65799;SDS011;52544;48.116;11.660;2023-12-20T01:32:07;2.05;;;1.20;;
65799;SDS011;52544;48.116;11.660;2023-12-20T01:34:32;3.28;;;1.45;;
65799;SDS011;52544;48.116;11.660;2023-12-20T01:36:57;1.85;;;1.23;;
65799;SDS011;52544;48.116;11.660;2023-12-20T01:39:23;5.75;;;1.45;;
65799;SDS011;52544;48.116;11.660;2023-12-20T01:41:48;1.52;;;1.13;;
65799;SDS011;52544;48.116;11.660;2023-12-20T01:44:14;3.75;;;1.30;;
65799;SDS011;52544;48.116;11.660;2023-12-20T01:46:39;2.53;;;1.40;;
65799;SDS011;52544;48.116;11.660;2023-12-20T01:49:06;1.95;;;1.17;;
65799;SDS011;52544;48.116;11.660;2023-12-20T01:51:31;2.13;;;1.33;;
65799;SDS011;52544;48.116;11.660;2023-12-20T01:53:58;1.52;;;1.30;;
65799;SDS011;52544;48.116;11.660;2023-12-20T01:56:25;2.47;;;1.10;;
65799;SDS011;52544;48.116;11.660;2023-12-20T01:58:53;2.25;;;1.33;;
65799;SDS011;52544;48.116;11.660;2023-12-20T02:01:19;1.98;;;1.08;;
65799;SDS011;52544;48.116;11.660;2023-12-20T02:03:45;2.03;;;1.00;;
65799;SDS011;52544;48.116;11.660;2023-12-20T02:06:11;1.55;;;1.00;;
65799;SDS011;52544;48.116;11.660;2023-12-20T02:08:37;1.55;;;1.00;;
65799;SDS011;52544;48.116;11.660;2023-12-20T02:11:02;1.70;;;1.30;;
65799;SDS011;52544;48.116;11.660;2023-12-20T02:13:28;2.28;;;1.10;;
65799;SDS011;52544;48.116;11.660;2023-12-20T02:15:54;1.40;;;1.17;;
65799;SDS011;52544;48.116;11.660;2023-12-20T02:18:19;1.95;;;1.10;;
65799;SDS011;52544;48.116;11.660;2023-12-20T02:20:45;1.38;;;1.10;;
65799;SDS011;52544;48.116;11.660;2023-12-20T02:23:10;1.27;;;1.00;;
65799;SDS011;52544;48.116;11.660;2023-12-20T02:25:36;1.10;;;1.00;;
65799;SDS011;52544;48.116;11.660;2023-12-20T02:28:02;1.52;;;1.00;;
65799;SDS011;52544;48.116;11.660;2023-12-20T02:30:28;1.27;;;0.95;;
65799;SDS011;52544;48.116;11.660;2023-12-20T02:32:54;1.13;;;0.90;;
65799;SDS011;52544;48.116;11.660;2023-12-20T02:35:20;1.30;;;0.98;;
65799;SDS011;52544;48.116;11.660;2023-12-20T02:37:45;1.17;;;0.80;;
65799;SDS011;52544;48.116;11.660;2023-12-20T02:40:10;1.23;;;0.80;;
65799;SDS011;52544;48.116;11.660;2023-12-20T02:42:36;1.30;;;0.85;;
65799;SDS011;52544;48.116;11.660;2023-12-20T02:45:02;1.50;;;0.90;;
65799;SDS011;52544;48.116;11.660;2023-12-20T02:47:27;1.02;;;0.80;;
65799;SDS011;52544;48.116;11.660;2023-12-20T02:49:54;1.55;;;1.10;;
65799;SDS011;52544;48.116;11.660;2023-12-20T02:52:20;1.38;;;0.90;;
65799;SDS011;52544;48.116;11.660;2023-12-20T02:54:46;1.40;;;0.82;;
65799;SDS011;52544;48.116;11.660;2023-12-20T02:57:11;1.00;;;0.75;;
65799;SDS011;52544;48.116;11.660;2023-12-20T02:59:37;1.30;;;0.70;;
65799;SDS011;52544;48.116;11.660;2023-12-20T03:02:02;1.98;;;1.00;;
65799;SDS011;52544;48.116;11.660;2023-12-20T03:04:28;1.33;;;0.75;;
65799;SDS011;52544;48.116;11.660;2023-12-20T03:06:53;1.85;;;0.90;;
65799;SDS011;52544;48.116;11.660;2023-12-20T03:09:19;0.82;;;0.82;;
65799;SDS011;52544;48.116;11.660;2023-12-20T03:11:44;1.10;;;0.80;;
65799;SDS011;52544;48.116;11.660;2023-12-20T03:14:09;0.90;;;0.80;;
65799;SDS011;52544;48.116;11.660;2023-12-20T03:16:35;2.65;;;1.00;;
65799;SDS011;52544;48.116;11.660;2023-12-20T03:19:00;1.30;;;0.80;;
65799;SDS011;52544;48.116;11.660;2023-12-20T03:21:25;1.10;;;0.70;;
65799;SDS011;52544;48.116;11.660;2023-12-20T03:23:51;1.33;;;0.90;;
65799;SDS011;52544;48.116;11.660;2023-12-20T03:26:16;1.05;;;0.80;;
65799;SDS011;52544;48.116;11.660;2023-12-20T03:28:42;2.10;;;0.80;;
65799;SDS011;52544;48.116;11.660;2023-12-20T03:31:07;4.07;;;0.90;;
65799;SDS011;52544;48.116;11.660;2023-12-20T03:33:34;1.15;;;0.80;;
65799;SDS011;52544;48.116;11.660;2023-12-20T03:36:00;1.48;;;0.90;;
65799;SDS011;52544;48.116;11.660;2023-12-20T03:38:25;1.40;;;0.82;;
65799;SDS011;52544;48.116;11.660;2023-12-20T03:40:50;1.70;;;1.00;;
65799;SDS011;52544;48.116;11.660;2023-12-20T03:43:16;1.60;;;1.00;;
65799;SDS011;52544;48.116;11.660;2023-12-20T03:45:44;0.70;;;0.70;;
65799;SDS011;52544;48.116;11.660;2023-12-20T03:48:09;0.70;;;0.70;;
65799;SDS011;52544;48.116;11.660;2023-12-20T03:50:35;2.22;;;0.88;;
65799;SDS011;52544;48.116;11.660;2023-12-20T03:53:01;1.23;;;0.80;;
65799;SDS011;52544;48.116;11.660;2023-12-20T03:55:26;1.00;;;0.70;;
65799;SDS011;52544;48.116;11.660;2023-12-20T03:57:51;1.13;;;0.75;;
65799;SDS011;52544;48.116;11.660;2023-12-20T04:00:17;1.58;;;0.70;;
65799;SDS011;52544;48.116;11.660;2023-12-20T04:02:42;0.68;;;0.60;;
65799;SDS011;52544;48.116;11.660;2023-12-20T04:05:08;0.68;;;0.63;;
65799;SDS011;52544;48.116;11.660;2023-12-20T04:07:35;0.60;;;0.60;;
65799;SDS011;52544;48.116;11.660;2023-12-20T04:10:01;0.80;;;0.60;;
65799;SDS011;52544;48.116;11.660;2023-12-20T04:12:30;0.50;;;0.50;;
65799;SDS011;52544;48.116;11.660;2023-12-20T04:14:56;0.90;;;0.70;;
65799;SDS011;52544;48.116;11.660;2023-12-20T04:17:21;0.93;;;0.63;;
65799;SDS011;52544;48.116;11.660;2023-12-20T04:19:48;0.52;;;0.52;;
65799;SDS011;52544;48.116;11.660;2023-12-20T04:22:14;1.23;;;0.65;;
65799;SDS011;52544;48.116;11.660;2023-12-20T04:24:39;1.80;;;0.70;;
65799;SDS011;52544;48.116;11.660;2023-12-20T04:27:07;0.50;;;0.50;;
65799;SDS011;52544;48.116;11.660;2023-12-20T04:29:33;0.60;;;0.60;;
65799;SDS011;52544;48.116;11.660;2023-12-20T04:31:58;1.05;;;0.63;;
65799;SDS011;52544;48.116;11.660;2023-12-20T04:34:24;0.85;;;0.60;;
65799;SDS011;52544;48.116;11.660;2023-12-20T04:36:49;0.98;;;0.70;;
65799;SDS011;52544;48.116;11.660;2023-12-20T04:39:14;0.82;;;0.65;;
65799;SDS011;52544;48.116;11.660;2023-12-20T04:41:40;1.30;;;0.80;;
65799;SDS011;52544;48.116;11.660;2023-12-20T04:44:05;0.93;;;0.70;;
65799;SDS011;52544;48.116;11.660;2023-12-20T04:46:31;0.95;;;0.80;;
65799;SDS011;52544;48.116;11.660;2023-12-20T04:48:56;0.80;;;0.60;;
65799;SDS011;52544;48.116;11.660;2023-12-20T04:51:22;0.90;;;0.77;;
65799;SDS011;52544;48.116;11.660;2023-12-20T04:53:47;1.85;;;1.10;;
65799;SDS011;52544;48.116;11.660;2023-12-20T04:56:13;1.95;;;1.05;;
65799;SDS011;52544;48.116;11.660;2023-12-20T04:58:38;1.17;;;1.00;;
65799;SDS011;52544;48.116;11.660;2023-12-20T05:01:05;1.13;;;0.85;;
65799;SDS011;52544;48.116;11.660;2023-12-20T05:03:31;2.22;;;1.13;;
65799;SDS011;52544;48.116;11.660;2023-12-20T05:05:56;1.65;;;1.00;;
65799;SDS011;52544;48.116;11.660;2023-12-20T05:08:22;2.42;;;1.30;;
65799;SDS011;52544;48.116;11.660;2023-12-20T05:10:47;2.53;;;1.50;;
65799;SDS011;52544;48.116;11.660;2023-12-20T05:13:13;2.83;;;1.55;;
65799;SDS011;52544;48.116;11.660;2023-12-20T05:15:38;2.80;;;1.40;;
65799;SDS011;52544;48.116;11.660;2023-12-20T05:18:04;2.20;;;1.60;;
65799;SDS011;52544;48.116;11.660;2023-12-20T05:20:29;1.75;;;1.13;;
65799;SDS011;52544;48.116;11.660;2023-12-20T05:22:55;1.90;;;1.38;;
65799;SDS011;52544;48.116;11.660;2023-12-20T05:25:20;3.70;;;1.55;;
65799;SDS011;52544;48.116;11.660;2023-12-20T05:27:45;2.22;;;1.40;;
65799;SDS011;52544;48.116;11.660;2023-12-20T05:30:11;2.03;;;1.45;;
65799;SDS011;52544;48.116;11.660;2023-12-20T05:32:36;1.73;;;1.23;;
65799;SDS011;52544;48.116;11.660;2023-12-20T05:35:02;4.75;;;1.58;;
65799;SDS011;52544;48.116;11.660;2023-12-20T05:37:28;4.80;;;1.42;;
65799;SDS011;52544;48.116;11.660;2023-12-20T05:39:53;3.22;;;1.30;;
65799;SDS011;52544;48.116;11.660;2023-12-20T05:42:19;3.78;;;2.00;;
65799;SDS011;52544;48.116;11.660;2023-12-20T05:44:44;4.25;;;1.98;;
65799;SDS011;52544;48.116;11.660;2023-12-20T05:47:10;4.97;;;2.17;;
65799;SDS011;52544;48.116;11.660;2023-12-20T05:49:35;2.50;;;1.48;;
65799;SDS011;52544;48.116;11.660;2023-12-20T05:52:00;2.58;;;1.58;;
65799;SDS011;52544;48.116;11.660;2023-12-20T05:54:26;3.53;;;1.48;;
65799;SDS011;52544;48.116;11.660;2023-12-20T05:56:51;3.42;;;1.60;;
65799;SDS011;52544;48.116;11.660;2023-12-20T05:59:16;2.60;;;1.50;;
65799;SDS011;52544;48.116;11.660;2023-12-20T06:01:42;3.25;;;1.92;;
65799;SDS011;52544;48.116;11.660;2023-12-20T06:04:07;2.95;;;1.45;;
65799;SDS011;52544;48.116;11.660;2023-12-20T06:06:33;1.73;;;1.10;;
65799;SDS011;52544;48.116;11.660;2023-12-20T06:08:58;2.45;;;1.40;;
65799;SDS011;52544;48.116;11.660;2023-12-20T06:11:23;2.65;;;1.40;;
65799;SDS011;52544;48.116;11.660;2023-12-20T06:13:49;3.00;;;1.75;;
65799;SDS011;52544;48.116;11.660;2023-12-20T06:16:17;3.05;;;1.80;;
65799;SDS011;52544;48.116;11.660;2023-12-20T06:18:43;3.33;;;1.70;;
65799;SDS011;52544;48.116;11.660;2023-12-20T06:21:08;3.05;;;1.90;;
65799;SDS011;52544;48.116;11.660;2023-12-20T06:23:37;3.00;;;1.67;;
65799;SDS011;52544;48.116;11.660;2023-12-20T06:26:03;1.92;;;1.42;;
65799;SDS011;52544;48.116;11.660;2023-12-20T06:28:28;2.08;;;1.50;;
65799;SDS011;52544;48.116;11.660;2023-12-20T06:30:54;2.40;;;1.60;;
65799;SDS011;52544;48.116;11.660;2023-12-20T06:33:20;2.28;;;1.60;;
65799;SDS011;52544;48.116;11.660;2023-12-20T06:35:47;2.03;;;1.27;;
65799;SDS011;52544;48.116;11.660;2023-12-20T06:38:12;4.07;;;1.80;;
65799;SDS011;52544;48.116;11.660;2023-12-20T06:40:38;3.10;;;1.50;;
65799;SDS011;52544;48.116;11.660;2023-12-20T06:43:03;4.05;;;1.50;;
65799;SDS011;52544;48.116;11.660;2023-12-20T06:45:28;2.08;;;1.30;;
65799;SDS011;52544;48.116;11.660;2023-12-20T06:47:54;4.57;;;2.10;;
65799;SDS011;52544;48.116;11.660;2023-12-20T06:50:20;4.88;;;1.83;;
65799;SDS011;52544;48.116;11.660;2023-12-20T06:52:45;2.58;;;1.38;;
65799;SDS011;52544;48.116;11.660;2023-12-20T06:55:11;2.47;;;1.50;;
65799;SDS011;52544;48.116;11.660;2023-12-20T06:57:36;3.22;;;1.20;;
65799;SDS011;52544;48.116;11.660;2023-12-20T07:00:02;2.55;;;1.23;;
65799;SDS011;52544;48.116;11.660;2023-12-20T07:02:28;3.25;;;1.20;;
65799;SDS011;52544;48.116;11.660;2023-12-20T07:04:55;3.78;;;1.67;;
65799;SDS011;52544;48.116;11.660;2023-12-20T07:07:21;1.63;;;1.30;;
65799;SDS011;52544;48.116;11.660;2023-12-20T07:09:48;1.42;;;1.10;;
65799;SDS011;52544;48.116;11.660;2023-12-20T07:12:14;4.43;;;1.60;;
65799;SDS011;52544;48.116;11.660;2023-12-20T07:14:39;9.18;;;1.63;;
65799;SDS011;52544;48.116;11.660;2023-12-20T07:17:04;2.05;;;1.35;;
65799;SDS011;52544;48.116;11.660;2023-12-20T07:19:30;2.38;;;1.42;;
65799;SDS011;52544;48.116;11.660;2023-12-20T07:21:55;1.35;;;0.80;;
65799;SDS011;52544;48.116;11.660;2023-12-20T07:24:21;1.48;;;1.10;;
65799;SDS011;52544;48.116;11.660;2023-12-20T07:26:46;1.30;;;0.93;;
65799;SDS011;52544;48.116;11.660;2023-12-20T07:29:11;1.27;;;0.90;;
65799;SDS011;52544;48.116;11.660;2023-12-20T07:31:37;1.70;;;0.88;;
65799;SDS011;52544;48.116;11.660;2023-12-20T07:34:03;1.58;;;0.80;;
65799;SDS011;52544;48.116;11.660;2023-12-20T07:36:28;1.27;;;1.00;;
65799;SDS011;52544;48.116;11.660;2023-12-20T07:38:54;7.32;;;2.85;;
65799;SDS011;52544;48.116;11.660;2023-12-20T07:41:19;2.08;;;1.00;;
65799;SDS011;52544;48.116;11.660;2023-12-20T07:43:46;1.67;;;1.00;;
65799;SDS011;52544;48.116;11.660;2023-12-20T07:46:12;4.32;;;1.52;;
65799;SDS011;52544;48.116;11.660;2023-12-20T07:48:37;2.63;;;1.55;;
65799;SDS011;52544;48.116;11.660;2023-12-20T07:51:04;2.47;;;1.63;;
65799;SDS011;52544;48.116;11.660;2023-12-20T07:53:32;3.45;;;1.90;;
65799;SDS011;52544;48.116;11.660;2023-12-20T07:55:58;3.00;;;1.50;;
65799;SDS011;52544;48.116;11.660;2023-12-20T07:58:23;7.35;;;1.85;;
65799;SDS011;52544;48.116;11.660;2023-12-20T08:00:49;5.63;;;2.90;;
65799;SDS011;52544;48.116;11.660;2023-12-20T08:03:14;1.38;;;1.08;;
65799;SDS011;52544;48.116;11.660;2023-12-20T08:05:39;3.50;;;1.70;;
65799;SDS011;52544;48.116;11.660;2023-12-20T08:08:05;2.70;;;1.40;;
65799;SDS011;52544;48.116;11.660;2023-12-20T08:10:31;2.38;;;1.33;;
65799;SDS011;52544;48.116;11.660;2023-12-20T08:12:57;2.78;;;1.20;;
65799;SDS011;52544;48.116;11.660;2023-12-20T08:15:22;1.15;;;0.80;;
65799;SDS011;52544;48.116;11.660;2023-12-20T08:17:48;1.00;;;0.90;;
65799;SDS011;52544;48.116;11.660;2023-12-20T08:20:16;1.30;;;1.00;;
65799;SDS011;52544;48.116;11.660;2023-12-20T08:22:42;1.58;;;1.05;;
65799;SDS011;52544;48.116;11.660;2023-12-20T08:25:07;1.13;;;1.00;;
65799;SDS011;52544;48.116;11.660;2023-12-20T08:27:33;1.40;;;1.10;;
65799;SDS011;52544;48.116;11.660;2023-12-20T08:29:59;2.22;;;1.08;;
65799;SDS011;52544;48.116;11.660;2023-12-20T08:32:25;0.85;;;0.75;;
65799;SDS011;52544;48.116;11.660;2023-12-20T08:34:51;3.45;;;1.23;;
65799;SDS011;52544;48.116;11.660;2023-12-20T08:37:16;1.30;;;0.93;;
65799;SDS011;52544;48.116;11.660;2023-12-20T08:39:42;2.28;;;1.45;;
65799;SDS011;52544;48.116;11.660;2023-12-20T08:42:09;1.50;;;1.17;;
65799;SDS011;52544;48.116;11.660;2023-12-20T08:44:34;1.23;;;1.00;;
65799;SDS011;52544;48.116;11.660;2023-12-20T08:46:59;2.97;;;0.95;;
65799;SDS011;52544;48.116;11.660;2023-12-20T08:49:25;4.43;;;1.70;;
65799;SDS011;52544;48.116;11.660;2023-12-20T08:51:50;1.30;;;0.70;;
65799;SDS011;52544;48.116;11.660;2023-12-20T08:54:16;1.20;;;0.90;;
65799;SDS011;52544;48.116;11.660;2023-12-20T08:56:42;2.80;;;0.95;;
65799;SDS011;52544;48.116;11.660;2023-12-20T08:59:08;1.30;;;0.98;;
65799;SDS011;52544;48.116;11.660;2023-12-20T09:01:34;3.75;;;0.70;;
65799;SDS011;52544;48.116;11.660;2023-12-20T09:04:00;0.95;;;0.80;;
65799;SDS011;52544;48.116;11.660;2023-12-20T09:06:25;1.63;;;1.20;;
65799;SDS011;52544;48.116;11.660;2023-12-20T09:08:51;1.45;;;1.10;;
65799;SDS011;52544;48.116;11.660;2023-12-20T09:11:17;1.00;;;0.90;;
65799;SDS011;52544;48.116;11.660;2023-12-20T09:13:42;1.27;;;0.90;;
65799;SDS011;52544;48.116;11.660;2023-12-20T09:16:09;2.10;;;0.80;;
65799;SDS011;52544;48.116;11.660;2023-12-20T09:18:35;1.33;;;0.80;;
65799;SDS011;52544;48.116;11.660;2023-12-20T09:21:00;1.42;;;1.02;;
65799;SDS011;52544;48.116;11.660;2023-12-20T09:23:25;1.23;;;0.98;;
65799;SDS011;52544;48.116;11.660;2023-12-20T09:25:51;2.40;;;1.20;;
65799;SDS011;52544;48.116;11.660;2023-12-20T09:28:16;1.13;;;0.80;;
65799;SDS011;52544;48.116;11.660;2023-12-20T09:30:42;2.90;;;0.70;;
65799;SDS011;52544;48.116;11.660;2023-12-20T09:33:07;1.00;;;0.90;;
65799;SDS011;52544;48.116;11.660;2023-12-20T09:35:33;1.70;;;1.02;;
65799;SDS011;52544;48.116;11.660;2023-12-20T09:37:58;1.95;;;1.10;;
65799;SDS011;52544;48.116;11.660;2023-12-20T09:40:23;1.08;;;0.90;;
65799;SDS011;52544;48.116;11.660;2023-12-20T09:42:58;2.03;;;1.10;;
65799;SDS011;52544;48.116;11.660;2023-12-20T09:45:28;1.80;;;1.13;;
65799;SDS011;52544;48.116;11.660;2023-12-20T09:47:56;1.38;;;1.00;;
65799;SDS011;52544;48.116;11.660;2023-12-20T09:50:23;1.48;;;1.00;;
65799;SDS011;52544;48.116;11.660;2023-12-20T09:52:49;1.83;;;0.85;;
65799;SDS011;52544;48.116;11.660;2023-12-20T09:55:19;2.58;;;1.10;;
65799;SDS011;52544;48.116;11.660;2023-12-20T09:57:46;0.63;;;0.60;;
65799;SDS011;52544;48.116;11.660;2023-12-20T10:00:15;1.48;;;0.95;;
65799;SDS011;52544;48.116;11.660;2023-12-20T10:02:44;0.73;;;0.68;;
65799;SDS011;52544;48.116;11.660;2023-12-20T10:05:15;5.35;;;2.22;;
65799;SDS011;52544;48.116;11.660;2023-12-20T10:07:44;0.85;;;0.80;;
65799;SDS011;52544;48.116;11.660;2023-12-20T10:10:11;1.23;;;0.90;;
65799;SDS011;52544;48.116;11.660;2023-12-20T10:12:38;1.42;;;1.00;;
65799;SDS011;52544;48.116;11.660;2023-12-20T10:15:03;2.22;;;1.02;;
65799;SDS011;52544;48.116;11.660;2023-12-20T10:17:29;1.80;;;1.08;;
65799;SDS011;52544;48.116;11.660;2023-12-20T10:19:55;1.15;;;0.90;;
65799;SDS011;52544;48.116;11.660;2023-12-20T10:22:21;1.83;;;1.10;;
65799;SDS011;52544;48.116;11.660;2023-12-20T10:24:46;1.10;;;0.90;;
65799;SDS011;52544;48.116;11.660;2023-12-20T10:27:12;2.42;;;1.30;;
65799;SDS011;52544;48.116;11.660;2023-12-20T10:29:37;1.38;;;1.10;;
65799;SDS011;52544;48.116;11.660;2023-12-20T10:34:49;1.65;;;1.10;;
65799;SDS011;52544;48.116;11.660;2023-12-20T10:37:15;1.00;;;0.82;;
65799;SDS011;52544;48.116;11.660;2023-12-20T10:39:41;1.05;;;0.98;;
65799;SDS011;52544;48.116;11.660;2023-12-20T10:42:08;1.67;;;0.95;;
65799;SDS011;52544;48.116;11.660;2023-12-20T10:44:35;2.65;;;1.52;;
65799;SDS011;52544;48.116;11.660;2023-12-20T10:47:01;1.95;;;1.40;;
65799;SDS011;52544;48.116;11.660;2023-12-20T10:49:27;2.28;;;1.20;;
65799;SDS011;52544;48.116;11.660;2023-12-20T10:51:54;3.67;;;1.67;;
65799;SDS011;52544;48.116;11.660;2023-12-20T10:54:19;3.95;;;1.27;;
65799;SDS011;52544;48.116;11.660;2023-12-20T10:56:45;1.20;;;1.00;;
65799;SDS011;52544;48.116;11.660;2023-12-20T10:59:11;1.35;;;0.98;;
65799;SDS011;52544;48.116;11.660;2023-12-20T11:01:36;1.40;;;1.10;;
65799;SDS011;52544;48.116;11.660;2023-12-20T11:04:05;1.00;;;0.90;;
65799;SDS011;52544;48.116;11.660;2023-12-20T11:09:16;1.65;;;1.08;;
65799;SDS011;52544;48.116;11.660;2023-12-20T11:12:03;1.25;;;1.08;;
65799;SDS011;52544;48.116;11.660;2023-12-20T11:14:46;1.13;;;0.93;;
65799;SDS011;52544;48.116;11.660;2023-12-20T11:17:13;1.48;;;1.00;;
65799;SDS011;52544;48.116;11.660;2023-12-20T11:22:19;4.05;;;1.25;;
65799;SDS011;52544;48.116;11.660;2023-12-20T11:24:45;2.35;;;1.42;;
65799;SDS011;52544;48.116;11.660;2023-12-20T11:27:12;2.10;;;1.30;;
65799;SDS011;52544;48.116;11.660;2023-12-20T11:29:38;2.03;;;1.33;;
65799;SDS011;52544;48.116;11.660;2023-12-20T11:34:50;2.80;;;1.50;;
65799;SDS011;52544;48.116;11.660;2023-12-20T11:37:16;1.65;;;1.30;;
65799;SDS011;52544;48.116;11.660;2023-12-20T11:39:42;2.47;;;1.55;;
65799;SDS011;52544;48.116;11.660;2023-12-20T11:42:09;2.40;;;1.50;;
65799;SDS011;52544;48.116;11.660;2023-12-20T11:44:36;3.65;;;1.65;;
65799;SDS011;52544;48.116;11.660;2023-12-20T11:47:01;1.60;;;1.25;;
65799;SDS011;52544;48.116;11.660;2023-12-20T11:49:27;5.00;;;2.65;;
65799;SDS011;52544;48.116;11.660;2023-12-20T11:51:56;1.77;;;1.40;;
65799;SDS011;52544;48.116;11.660;2023-12-20T11:54:22;4.35;;;2.30;;
65799;SDS011;52544;48.116;11.660;2023-12-20T11:56:47;2.20;;;1.45;;
65799;SDS011;52544;48.116;11.660;2023-12-20T11:59:13;2.00;;;1.60;;
65799;SDS011;52544;48.116;11.660;2023-12-20T12:01:38;2.33;;;1.75;;
65799;SDS011;52544;48.116;11.660;2023-12-20T12:04:06;3.45;;;1.58;;
65799;SDS011;52544;48.116;11.660;2023-12-20T12:06:32;2.33;;;1.45;;
65799;SDS011;52544;48.116;11.660;2023-12-20T12:08:58;3.10;;;1.70;;
65799;SDS011;52544;48.116;11.660;2023-12-20T12:11:24;2.33;;;1.60;;
65799;SDS011;52544;48.116;11.660;2023-12-20T12:13:49;7.18;;;2.50;;
65799;SDS011;52544;48.116;11.660;2023-12-20T12:16:19;6.18;;;3.25;;
65799;SDS011;52544;48.116;11.660;2023-12-20T12:18:45;2.25;;;1.48;;
65799;SDS011;52544;48.116;11.660;2023-12-20T12:21:18;2.75;;;1.90;;
65799;SDS011;52544;48.116;11.660;2023-12-20T12:23:45;3.70;;;1.70;;
65799;SDS011;52544;48.116;11.660;2023-12-20T12:26:11;1.67;;;1.23;;
65799;SDS011;52544;48.116;11.660;2023-12-20T12:28:39;2.55;;;1.35;;
65799;SDS011;52544;48.116;11.660;2023-12-20T12:31:05;2.03;;;1.35;;
65799;SDS011;52544;48.116;11.660;2023-12-20T12:33:30;1.65;;;1.20;;
65799;SDS011;52544;48.116;11.660;2023-12-20T12:35:56;3.97;;;2.17;;
65799;SDS011;52544;48.116;11.660;2023-12-20T12:38:21;1.38;;;1.20;;
65799;SDS011;52544;48.116;11.660;2023-12-20T12:40:47;3.63;;;2.40;;
65799;SDS011;52544;48.116;11.660;2023-12-20T12:43:14;4.20;;;2.83;;
65799;SDS011;52544;48.116;11.660;2023-12-20T12:45:40;2.08;;;1.35;;
65799;SDS011;52544;48.116;11.660;2023-12-20T12:48:05;7.05;;;3.13;;
65799;SDS011;52544;48.116;11.660;2023-12-20T12:50:31;1.42;;;1.30;;
65799;SDS011;52544;48.116;11.660;2023-12-20T12:52:57;4.18;;;2.33;;
65799;SDS011;52544;48.116;11.660;2023-12-20T12:55:22;2.13;;;1.73;;
65799;SDS011;52544;48.116;11.660;2023-12-20T12:57:47;3.10;;;1.83;;
65799;SDS011;52544;48.116;11.660;2023-12-20T13:00:13;5.05;;;3.13;;
65799;SDS011;52544;48.116;11.660;2023-12-20T13:02:39;2.40;;;1.70;;
65799;SDS011;52544;48.116;11.660;2023-12-20T13:05:07;2.15;;;1.95;;
65799;SDS011;52544;48.116;11.660;2023-12-20T13:07:33;3.92;;;1.70;;
65799;SDS011;52544;48.116;11.660;2023-12-20T13:09:59;4.10;;;1.67;;
65799;SDS011;52544;48.116;11.660;2023-12-20T13:12:25;6.28;;;3.30;;
65799;SDS011;52544;48.116;11.660;2023-12-20T13:14:51;3.33;;;2.22;;
65799;SDS011;52544;48.116;11.660;2023-12-20T13:17:16;3.22;;;1.90;;
65799;SDS011;52544;48.116;11.660;2023-12-20T13:19:42;3.83;;;1.80;;
65799;SDS011;52544;48.116;11.660;2023-12-20T13:22:07;3.20;;;1.48;;
65799;SDS011;52544;48.116;11.660;2023-12-20T13:24:33;4.45;;;1.60;;
65799;SDS011;52544;48.116;11.660;2023-12-20T13:26:58;3.08;;;1.83;;
65799;SDS011;52544;48.116;11.660;2023-12-20T13:29:24;2.40;;;1.48;;
65799;SDS011;52544;48.116;11.660;2023-12-20T13:31:52;2.17;;;1.60;;
65799;SDS011;52544;48.116;11.660;2023-12-20T13:34:17;2.15;;;1.58;;
65799;SDS011;52544;48.116;11.660;2023-12-20T13:36:43;2.88;;;1.65;;
65799;SDS011;52544;48.116;11.660;2023-12-20T13:39:11;3.70;;;1.70;;
65799;SDS011;52544;48.116;11.660;2023-12-20T13:41:37;3.25;;;2.00;;
65799;SDS011;52544;48.116;11.660;2023-12-20T13:44:02;4.55;;;1.83;;
65799;SDS011;52544;48.116;11.660;2023-12-20T13:46:28;2.42;;;1.70;;
65799;SDS011;52544;48.116;11.660;2023-12-20T13:48:54;7.40;;;2.03;;
65799;SDS011;52544;48.116;11.660;2023-12-20T13:51:19;8.10;;;2.08;;
65799;SDS011;52544;48.116;11.660;2023-12-20T13:53:45;3.58;;;2.33;;
65799;SDS011;52544;48.116;11.660;2023-12-20T13:56:11;4.82;;;2.50;;
65799;SDS011;52544;48.116;11.660;2023-12-20T13:58:36;4.40;;;2.13;;
65799;SDS011;52544;48.116;11.660;2023-12-20T14:01:02;6.78;;;2.05;;
65799;SDS011;52544;48.116;11.660;2023-12-20T14:03:27;5.05;;;1.90;;
65799;SDS011;52544;48.116;11.660;2023-12-20T14:05:52;3.38;;;1.98;;
65799;SDS011;52544;48.116;11.660;2023-12-20T14:08:18;4.47;;;2.33;;
65799;SDS011;52544;48.116;11.660;2023-12-20T14:10:43;3.45;;;1.88;;
65799;SDS011;52544;48.116;11.660;2023-12-20T14:13:09;7.85;;;2.00;;
65799;SDS011;52544;48.116;11.660;2023-12-20T14:15:34;4.57;;;2.55;;
65799;SDS011;52544;48.116;11.660;2023-12-20T14:18:05;4.22;;;1.98;;
65799;SDS011;52544;48.116;11.660;2023-12-20T14:20:32;4.57;;;2.70;;
65799;SDS011;52544;48.116;11.660;2023-12-20T14:23:01;8.30;;;2.47;;
65799;SDS011;52544;48.116;11.660;2023-12-20T14:25:27;4.60;;;2.15;;
65799;SDS011;52544;48.116;11.660;2023-12-20T14:27:52;5.65;;;2.35;;
65799;SDS011;52544;48.116;11.660;2023-12-20T14:30:18;7.35;;;1.92;;
65799;SDS011;52544;48.116;11.660;2023-12-20T14:32:43;4.05;;;2.20;;
65799;SDS011;52544;48.116;11.660;2023-12-20T14:35:09;5.18;;;2.20;;
65799;SDS011;52544;48.116;11.660;2023-12-20T14:37:35;3.58;;;2.10;;